Anatone, WA

2:49 AM PDT on October 31, 2014 (GMT -0700)
Montgomery Ridge Road | Change Station
CLOSE
Current Station
Personal Weather Station
Location: Anatone, WA
Elevation: 3300 ft
Nearby Weather Stations

Elev 3300 ft 46.12 °N, 117.01 °W | Updated 4 minutes ago

Partly Cloudy
Partly Cloudy
53.8 °F
Feels Like 53.8 °F
N
4.9
Wind Variable Wind from SSW
Gusts 7.4 mph

Today
High -- | Low -- °F
--% Chance of Precip.
Yesterday
High -- | Low -- °F
Precip. -- in
7:27 AM 5:35 PM
First Quarter, 53% visible
Pressure 29.75 in
Visibility 6.0 miles
Clouds Clear
Dew Point 38 °F
Humidity 55%
Rainfall 0.00 in
Snow Depth Not available.
UV 0 out of 12
Pollen 2.20 out of 12
Air Quality Not available.
Flu Activity Not available.
METAR KLWS 310856Z AUTO 29004KT 6SM HZ CLR 11/08 A2975 RMK AO2 SLP073 T01110083 55013

More Conditions Fewer Conditions

Pressure 29.75 in
Visibility 6.0 miles
Clouds Clear
Dew Point 38 °F
Humidity 55%
Rainfall 0.00 in
Snow Depth Not available.
UV 0 out of 12
Pollen 2.20 out of 12
Air Quality Not available.
Flu Activity Not available.
METAR KLWS 310856Z AUTO 29004KT 6SM HZ CLR 11/08 A2975 RMK AO2 SLP073 T01110083 55013

More Conditions Fewer Conditions

10-Day Weather Forecast

Almanac

Astronomy

Oct. 31, 2014 Rise Set
Actual Time
Civil Twilight
Nautical Twilight
Astronomical Twilight
Moon
Length of Visible Light
Length of Day
Tomorrow will be .
, % of the Moon is Illuminated

Today's Extremes

State Highs State Lows

Community

WunderPhotos

Upload Photos

1,766,577 photos uploaded!

WunderBlogs® & News

Nearby

Air Quality

  Air Quality AQ Index Pollutant
Not available.

Snow Depth

Station Depth Elevation

Earthquake Activity

City Distance Mag. Time & Date
Minimum magnitude displayed is 2.5.

Coastal Water Temperatures

Place Temperature

Nearby Weather Stations